Time;durP1;ratioP1;P1;durP2;ratioP2;P2;SDS_P1;SDS_P2;PMS_P1;PMS_P2;Temp;Humidity;BMP_temperature;BMP_pressure;BME280_temperature;BME280_humidity;BME280_pressure;Samples;Min_cycle;Max_cycle;Signal;HPM_P1;HPM_P2
2022/05/11 00:01:40;;;;;;;15.30;9.07;;;;;;;11.45;83.47;100594.34;4470691;32;20134;-66
2022/05/11 00:04:09;;;;;;;14.25;9.18;;;;;;;11.57;81.68;100597.72;4470824;32;20416;-66
2022/05/11 00:06:37;;;;;;;16.92;9.98;;;;;;;11.60;82.59;100588.00;4470915;32;20081;-66
2022/05/11 00:09:06;;;;;;;19.60;10.75;;;;;;;11.47;83.21;100595.16;4470812;32;20452;-66
2022/05/11 00:11:34;;;;;;;16.77;10.88;;;;;;;11.43;84.10;100593.47;4470827;32;20641;-66
2022/05/11 00:14:03;;;;;;;16.80;10.25;;;;;;;11.45;83.96;100589.06;4470724;32;20080;-66
2022/05/11 00:16:31;;;;;;;26.73;15.25;;;;;;;11.38;84.47;100586.50;4470649;32;20080;-66
2022/05/11 00:18:58;;;;;;;29.08;16.33;;;;;;;11.33;84.90;100586.53;4470724;32;20458;-66
2022/05/11 00:21:26;;;;;;;21.67;14.48;;;;;;;11.32;85.45;100587.44;4470650;32;20092;-66
2022/05/11 00:23:53;;;;;;;20.95;12.55;;;;;;;11.21;87.50;100594.62;4470527;32;20123;-66
2022/05/11 00:26:21;;;;;;;18.23;11.85;;;;;;;11.19;86.79;100593.75;4470540;32;20093;-66
2022/05/11 00:28:49;;;;;;;15.00;8.27;;;;;;;11.15;87.53;100598.19;4470746;32;20219;-66
2022/05/11 00:31:16;;;;;;;15.90;10.30;;;;;;;11.09;86.62;100595.59;4470509;32;20147;-66
2022/05/11 00:33:43;;;;;;;16.27;9.20;;;;;;;11.06;87.08;100592.13;4470156;32;20101;-66
2022/05/11 00:36:13;;;;;;;15.68;8.75;;;;;;;11.03;88.49;100595.69;4470079;32;20126;-66
2022/05/11 00:38:40;;;;;;;15.77;8.23;;;;;;;11.03;87.81;100585.16;4470659;32;20100;-66
2022/05/11 00:41:08;;;;;;;14.80;7.53;;;;;;;11.08;88.14;100588.59;4470655;32;20519;-66
2022/05/11 00:43:52;;;;;;;11.15;7.60;;;;;;;11.04;87.39;100583.38;4470509;32;20107;-66
2022/05/11 00:46:37;;;;;;;13.32;6.93;;;;;;;11.07;86.83;100597.41;4470662;32;20119;-66
2022/05/11 00:52:06;;;;;;;11.43;6.85;;;;;;;11.18;84.44;100592.00;4470512;32;20509;-66
2022/05/11 00:54:38;;;;;;;11.95;6.40;;;;;;;11.14;86.55;100592.94;4470408;32;20073;-66
2022/05/11 00:57:14;;;;;;;11.90;6.47;;;;;;;11.04;87.23;100588.66;4470500;32;20487;-66
2022/05/11 00:59:44;;;;;;;11.43;5.90;;;;;;;10.94;87.98;100591.38;4470468;32;20115;-66
2022/05/11 01:02:12;;;;;;;12.27;6.12;;;;;;;10.85;88.59;100591.47;4470282;32;20176;-66
2022/05/11 01:04:42;;;;;;;13.45;6.60;;;;;;;10.71;89.87;100594.25;4470353;32;20080;-66
2022/05/11 01:07:11;;;;;;;18.52;6.55;;;;;;;10.71;89.98;100585.47;4470404;32;20103;-66
2022/05/11 01:09:39;;;;;;;9.10;6.22;;;;;;;10.71;89.65;100588.97;4470341;32;20535;-66
2022/05/11 01:12:12;;;;;;;13.05;6.40;;;;;;;10.67;90.36;100584.62;4470335;32;20092;-66
2022/05/11 01:14:43;;;;;;;9.60;6.28;;;;;;;10.71;89.84;100588.97;4470351;32;20123;-66
2022/05/11 01:17:11;;;;;;;10.65;6.07;;;;;;;10.68;90.02;100588.12;4470293;32;20102;-66
2022/05/11 01:19:43;;;;;;;12.05;5.85;;;;;;;10.66;89.81;100585.47;4470174;32;20754;-66
2022/05/11 01:22:23;;;;;;;10.38;6.07;;;;;;;10.65;89.79;100583.75;4470083;32;20129;-66
2022/05/11 01:24:51;;;;;;;14.52;6.32;;;;;;;10.60;90.55;100585.56;4470196;32;20151;-66
2022/05/11 01:27:28;;;;;;;11.00;6.57;;;;;;;10.54;91.62;100590.88;4470205;32;20093;-66
2022/05/11 01:29:59;;;;;;;11.50;6.60;;;;;;;10.49;92.42;100588.28;4470100;32;20115;-66
2022/05/11 01:32:28;;;;;;;10.10;6.07;;;;;;;10.50;92.16;100594.44;4470394;32;20431;-66
2022/05/11 01:35:05;;;;;;;8.82;6.18;;;;;;;10.46;92.18;100592.72;4470260;32;20080;-66
2022/05/11 01:37:38;;;;;;;8.48;5.80;;;;;;;10.53;91.73;100597.03;4470151;32;20096;-66
2022/05/11 01:40:05;;;;;;;13.85;5.97;;;;;;;10.56;91.54;100593.47;4470136;32;20088;-66
2022/05/11 01:42:33;;;;;;;10.63;5.90;;;;;;;10.50;91.37;100595.28;4469965;32;20159;-66
2022/05/11 01:45:00;;;;;;;10.20;6.35;;;;;;;10.48;91.65;100604.09;4470003;32;20089;-66
2022/05/11 01:47:27;;;;;;;11.02;6.28;;;;;;;10.44;92.77;100595.34;4469908;32;20115;-66
2022/05/11 01:49:54;;;;;;;12.63;6.30;;;;;;;10.43;93.47;100598.88;4470062;32;20088;-66
2022/05/11 01:52:21;;;;;;;10.70;6.55;;;;;;;10.44;93.28;100600.59;4470022;32;20108;-66
2022/05/11 01:54:49;;;;;;;7.22;5.60;;;;;;;10.39;92.97;100599.78;4469980;32;20118;-66
2022/05/11 01:57:16;;;;;;;8.77;6.55;;;;;;;10.27;93.08;100603.34;4470057;32;20115;-67
2022/05/11 01:59:43;;;;;;;10.38;6.68;;;;;;;10.23;94.37;100603.37;4469902;32;20149;-66
2022/05/11 02:02:10;;;;;;;8.57;6.15;;;;;;;10.38;92.28;100599.78;4469850;32;20137;-66
2022/05/11 02:10:10;;;;;;;8.70;5.78;;;;;;;10.60;91.36;100600.47;4469945;32;20180;-66
2022/05/11 02:12:38;;;;;;;16.00;6.90;;;;;;;10.57;90.75;100590.84;4470000;32;20499;-66
2022/05/11 02:15:07;;;;;;;11.77;6.70;;;;;;;10.39;92.78;100590.97;4469902;32;20093;-66
2022/05/11 02:17:35;;;;;;;9.73;6.82;;;;;;;10.32;93.61;100594.53;4469728;32;20445;-66
2022/05/11 02:20:03;;;;;;;11.32;7.15;;;;;;;10.20;93.38;100592.84;4469854;32;20157;-66
2022/05/11 02:22:30;;;;;;;14.10;7.32;;;;;;;10.13;94.58;100599.03;4469639;32;20095;-66
2022/05/11 02:24:57;;;;;;;9.13;6.90;;;;;;;10.10;95.39;100599.06;4469708;32;20171;-66
2022/05/11 02:27:24;;;;;;;10.23;6.90;;;;;;;10.04;95.07;100598.22;4469632;32;20193;-66
2022/05/11 02:29:51;;;;;;;12.10;7.15;;;;;;;9.99;95.45;100594.72;4469646;32;20406;-66
2022/05/11 02:32:19;;;;;;;14.85;8.27;;;;;;;9.90;97.47;100597.44;4469773;32;20181;-66
2022/05/11 02:37:33;;;;;;;10.10;7.68;;;;;;;9.70;99.34;100594.91;4469608;32;20093;-66
2022/05/11 02:40:00;;;;;;;9.02;7.68;;;;;;;9.64;100.00;100594.06;4469619;32;20448;-66
2022/05/11 02:42:27;;;;;;;13.02;7.95;;;;;;;9.56;100.00;100591.47;4469763;32;20100;-66
2022/05/11 02:44:55;;;;;;;10.68;7.93;;;;;;;9.54;100.00;100599.37;4469464;32;20458;-66
2022/05/11 02:47:22;;;;;;;12.27;7.70;;;;;;;9.50;100.00;100592.34;4469499;32;20512;-66
2022/05/11 02:49:49;;;;;;;10.13;7.72;;;;;;;9.48;100.00;100593.25;4469476;32;20151;-66
2022/05/11 02:52:17;;;;;;;15.20;8.57;;;;;;;9.46;100.00;100592.38;4469670;32;20099;-66
2022/05/11 02:54:46;;;;;;;12.40;8.45;;;;;;;9.47;100.00;100591.50;4469413;32;20126;-66
2022/05/11 02:57:15;;;;;;;10.82;7.72;;;;;;;9.40;100.00;100595.03;4469345;32;20100;-66
2022/05/11 02:59:44;;;;;;;14.35;7.93;;;;;;;9.39;100.00;100599.41;4471119;32;20156;-66
2022/05/11 03:02:11;;;;;;;14.60;8.13;;;;;;;9.49;99.98;100600.25;4471102;32;20100;-66
2022/05/11 03:04:38;;;;;;;11.18;7.85;;;;;;;9.43;100.00;100600.28;4471204;32;20080;-66
2022/05/11 03:07:06;;;;;;;13.75;7.87;;;;;;;9.37;100.00;100595.94;4471191;32;20534;-66
2022/05/11 03:09:33;;;;;;;9.88;7.55;;;;;;;9.40;100.00;100598.56;4470995;32;20093;-66
2022/05/11 03:12:01;;;;;;;14.90;7.93;;;;;;;9.39;100.00;100593.28;4471188;32;20104;-66
2022/05/11 03:14:28;;;;;;;11.95;7.93;;;;;;;9.42;100.00;100596.78;4471077;32;20159;-66
2022/05/11 03:16:55;;;;;;;13.00;7.45;;;;;;;9.43;100.00;100598.53;4471046;32;20096;-66
2022/05/11 03:19:22;;;;;;;14.93;7.57;;;;;;;9.43;100.00;100605.53;4471155;32;20111;-66
2022/05/11 03:21:51;;;;;;;12.90;7.32;;;;;;;9.60;98.37;100601.09;4471021;32;20088;-66
2022/05/11 03:24:19;;;;;;;14.20;6.97;;;;;;;9.64;97.95;100599.31;4471283;32;20087;-66
2022/05/11 03:26:46;;;;;;;14.10;6.93;;;;;;;9.72;96.28;100600.19;4471007;32;20505;-66
2022/05/11 03:29:13;;;;;;;13.18;7.75;;;;;;;9.70;97.51;100610.69;4471044;32;20143;-66
2022/05/11 03:34:36;;;;;;;12.27;7.78;;;;;;;9.67;98.61;100613.34;4471049;32;20692;-66
2022/05/11 03:34:37;;;;;;;11.57;7.55;;;;;;;9.63;98.85;100614.22;4470944;32;20102;-66
2022/05/11 03:37:14;;;;;;;13.97;7.40;;;;;;;9.58;98.89;100616.91;4470872;32;20103;-66
2022/05/11 03:39:42;;;;;;;13.82;7.50;;;;;;;9.58;98.64;100609.00;4471087;32;20463;-66
2022/05/11 03:42:15;;;;;;;16.92;8.88;;;;;;;9.65;97.92;100616.87;4470761;32;20100;-66
2022/05/11 03:44:43;;;;;;;14.87;8.63;;;;;;;9.60;99.94;100614.25;4471631;32;20103;-66
2022/05/11 03:47:10;;;;;;;14.65;8.85;;;;;;;9.74;98.72;100617.69;4471756;32;20115;-66
2022/05/11 03:49:37;;;;;;;14.77;7.60;;;;;;;9.88;97.75;100624.66;4471772;32;20130;-66
2022/05/11 03:52:05;;;;;;;12.63;8.98;;;;;;;10.02;95.95;100628.94;4471802;32;20127;-66
2022/05/11 03:54:36;;;;;;;13.65;10.13;;;;;;;10.10;96.45;100621.00;4471372;32;20098;-66
2022/05/11 03:57:04;;;;;;;14.82;9.25;;;;;;;10.04;98.02;100621.94;4470767;32;20100;-66
2022/05/11 03:59:31;;;;;;;16.45;10.20;;;;;;;10.02;97.60;100618.41;4469492;32;20167;-66
2022/05/11 04:01:58;;;;;;;22.52;10.05;;;;;;;10.13;98.11;100631.50;4466244;32;20097;-66
2022/05/11 04:04:26;;;;;;;14.80;8.15;;;;;;;10.35;98.06;100644.56;4471260;32;20892;-66
2022/05/11 04:06:53;;;;;;;15.60;8.85;;;;;;;10.38;97.48;100636.66;4470583;32;20529;-66
2022/05/11 04:09:20;;;;;;;12.57;6.85;;;;;;;10.46;97.35;100642.75;4470546;32;20103;-66
2022/05/11 04:11:48;;;;;;;12.27;6.97;;;;;;;10.59;95.67;100631.22;4456255;32;20814;-66
2022/05/11 04:14:15;;;;;;;10.38;6.85;;;;;;;10.64;95.92;100641.75;4471100;32;20135;-66
2022/05/11 04:16:43;;;;;;;13.77;7.32;;;;;;;10.76;95.57;100646.91;4470591;32;20096;-66
2022/05/11 04:19:11;;;;;;;15.73;8.77;;;;;;;10.77;94.74;100646.87;4471569;32;20115;-66
2022/05/11 04:21:38;;;;;;;12.55;6.97;;;;;;;10.94;93.59;100649.38;4459722;32;358913;-66
2022/05/11 04:24:05;;;;;;;15.27;7.43;;;;;;;11.06;92.86;100645.75;4470672;32;20102;-66
2022/05/11 04:26:32;;;;;;;11.68;7.20;;;;;;;11.12;92.62;100644.81;4455470;32;20131;-66
2022/05/11 04:28:59;;;;;;;19.17;6.80;;;;;;;11.24;92.82;100644.69;4455307;32;20100;-66
2022/05/11 04:31:26;;;;;;;25.40;7.95;;;;;;;11.30;92.01;100639.34;4455010;32;20523;-66
2022/05/11 04:33:54;;;;;;;17.77;7.40;;;;;;;11.42;92.28;100646.28;4454882;32;20084;-66
2022/05/11 04:36:21;;;;;;;15.15;7.37;;;;;;;11.58;89.35;100639.91;4455004;32;20118;-66
2022/05/11 04:38:48;;;;;;;12.37;7.10;;;;;;;11.73;89.47;100646.75;4454802;32;20528;-66
2022/05/11 04:41:16;;;;;;;19.17;7.55;;;;;;;11.83;89.81;100637.81;4454809;32;20390;-66
2022/05/11 04:43:50;;;;;;;13.18;7.20;;;;;;;12.03;88.80;100642.88;4454956;32;20084;-66
2022/05/11 04:46:18;;;;;;;11.05;7.22;;;;;;;12.21;88.09;100647.03;4454709;32;20100;-66
2022/05/11 04:48:45;;;;;;;26.17;8.10;;;;;;;12.33;88.41;100646.87;4454943;32;20212;-66
2022/05/11 04:51:13;;;;;;;17.05;8.80;;;;;;;12.49;87.46;100649.28;4454644;32;20105;-66
2022/05/11 04:53:40;;;;;;;19.83;9.00;;;;;;;12.55;88.61;100649.19;4454746;32;20104;-66
2022/05/11 04:56:07;;;;;;;15.20;7.72;;;;;;;12.67;88.65;100638.41;4454778;32;20579;-66
2022/05/11 04:58:34;;;;;;;22.37;8.63;;;;;;;12.81;87.33;100635.53;4454734;32;20119;-66
2022/05/11 05:01:02;;;;;;;18.62;8.85;;;;;;;12.91;86.59;100643.28;4454677;32;20130;-66
2022/05/11 05:03:29;;;;;;;49.60;10.68;;;;;;;13.09;86.50;100636.78;4454594;32;20080;-66
2022/05/11 05:05:56;;;;;;;21.20;8.50;;;;;;;13.24;85.78;100634.78;4454672;32;20126;-66
2022/05/11 05:08:23;;;;;;;14.70;7.30;;;;;;;13.39;83.90;100645.06;4454696;32;20116;-67
2022/05/11 05:10:53;;;;;;;20.92;9.75;;;;;;;13.52;82.69;100645.72;4454565;32;20104;-67
2022/05/11 05:13:20;;;;;;;23.12;9.15;;;;;;;13.62;84.74;100649.94;4456803;32;20097;-67
2022/05/11 05:15:56;;;;;;;19.42;11.02;;;;;;;13.79;83.15;100644.31;4454746;32;20153;-66
2022/05/11 05:18:24;;;;;;;18.98;10.73;;;;;;;13.86;85.22;100656.50;4459226;32;20100;-66
2022/05/11 05:20:53;;;;;;;24.65;11.52;;;;;;;13.99;83.70;100643.84;4466453;32;20108;-67
2022/05/11 05:23:20;;;;;;;22.40;10.10;;;;;;;14.13;82.86;100652.38;4469832;32;20459;-67
2022/05/11 05:25:47;;;;;;;24.85;10.80;;;;;;;14.20;82.53;100656.63;4469962;32;20092;-67
2022/05/11 05:31:06;;;;;;;12.85;9.63;;;;;;;14.57;80.54;100650.53;4460662;32;20456;-66
2022/05/11 05:33:34;;;;;;;18.62;10.95;;;;;;;14.71;79.99;100652.84;4460434;32;20135;-67
2022/05/11 05:36:03;;;;;;;19.80;8.98;;;;;;;14.73;80.86;100651.88;4462098;32;20116;-66
2022/05/11 05:38:34;;;;;;;20.05;8.48;;;;;;;14.90;79.22;100655.91;4460308;32;20088;-67
2022/05/11 05:41:01;;;;;;;15.93;8.30;;;;;;;15.09;78.13;100654.53;4462312;32;20096;-66
2022/05/11 05:43:29;;;;;;;14.63;7.93;;;;;;;15.26;76.26;100652.31;4460504;32;20401;-66
2022/05/11 05:45:56;;;;;;;21.70;8.80;;;;;;;15.42;75.27;100651.88;4461942;32;20207;-66
2022/05/11 05:48:23;;;;;;;17.85;8.23;;;;;;;15.56;75.68;100654.16;4462179;32;20180;-66
2022/05/11 05:50:51;;;;;;;16.00;8.55;;;;;;;15.68;75.38;100648.50;4460605;32;20140;-67
2022/05/11 05:53:21;;;;;;;20.40;9.20;;;;;;;15.77;74.71;100650.91;4459627;32;20114;-66
2022/05/11 05:55:49;;;;;;;16.45;7.28;;;;;;;15.90;74.48;100646.97;4454409;32;20119;-66
2022/05/11 05:58:17;;;;;;;15.27;8.70;;;;;;;16.10;72.23;100653.47;4452543;32;20108;-66
2022/05/11 06:00:45;;;;;;;21.55;8.15;;;;;;;16.23;73.76;100655.72;4454204;32;20433;-66
2022/05/11 06:03:22;;;;;;;24.08;7.78;;;;;;;16.36;73.54;100657.97;4453968;32;20148;-66
2022/05/11 06:05:49;;;;;;;17.23;7.87;;;;;;;16.46;71.81;100654.97;4454255;32;20103;-67
2022/05/11 06:08:17;;;;;;;10.05;7.12;;;;;;;16.55;70.76;100661.81;4453452;32;20492;-66
2022/05/11 06:10:46;;;;;;;20.08;7.55;;;;;;;16.61;69.71;100653.63;4453960;32;20123;-66
2022/05/11 06:13:16;;;;;;;14.93;7.28;;;;;;;16.69;71.13;100662.22;4454238;32;20138;-66
2022/05/11 06:15:43;;;;;;;21.58;7.85;;;;;;;16.83;70.57;100664.47;4454165;32;20106;-66
2022/05/11 06:18:11;;;;;;;29.45;8.60;;;;;;;16.97;70.11;100656.03;4453766;32;20123;-66
2022/05/11 06:20:38;;;;;;;16.08;8.15;;;;;;;17.10;71.07;100662.69;4453366;32;20452;-67
2022/05/11 06:23:06;;;;;;;13.50;7.18;;;;;;;17.11;69.91;100656.44;4453724;32;20152;-66
2022/05/11 06:25:37;;;;;;;19.23;6.90;;;;;;;17.17;70.08;100663.31;4454013;32;20092;-67
2022/05/11 06:28:09;;;;;;;11.80;7.32;;;;;;;17.24;69.84;100667.50;4454098;32;20165;-66
2022/05/11 06:30:46;;;;;;;14.57;7.32;;;;;;;17.49;70.16;100664.88;4453988;32;20116;-66
2022/05/11 06:33:14;;;;;;;15.65;7.78;;;;;;;17.73;69.60;100668.41;4452516;32;20080;-67
2022/05/11 06:35:41;;;;;;;25.10;7.62;;;;;;;17.88;69.61;100662.56;4453829;32;20481;-67
2022/05/11 06:38:09;;;;;;;10.50;6.10;;;;;;;17.98;68.44;100663.06;4453764;32;20160;-67
2022/05/11 06:40:37;;;;;;;15.23;7.55;;;;;;;18.08;66.35;100661.78;4451604;32;20586;-66
2022/05/11 06:43:05;;;;;;;11.05;7.40;;;;;;;18.11;68.57;100660.81;4452912;32;20081;-66
2022/05/11 06:45:33;;;;;;;23.65;7.60;;;;;;;18.28;67.57;100663.69;4453600;32;20115;-66
2022/05/11 06:48:00;;;;;;;18.52;7.47;;;;;;;18.58;67.17;100669.59;4453521;32;20104;-66
2022/05/11 06:50:27;;;;;;;20.65;7.68;;;;;;;18.74;65.86;100661.88;4454471;32;20967;-66
2022/05/11 06:52:56;;;;;;;20.90;7.20;;;;;;;18.90;65.76;100659.41;4454217;32;20085;-67
2022/05/11 07:00:55;;;;;;;17.17;8.02;;;;;;;19.46;64.03;100657.91;4458904;32;20096;-67
2022/05/11 07:03:22;;;;;;;13.93;6.97;;;;;;;19.52;63.64;100653.16;4469572;32;20149;-67
2022/05/11 07:05:50;;;;;;;19.77;6.93;;;;;;;19.62;63.12;100656.31;4469838;31;20153;-67
2022/05/11 07:08:17;;;;;;;12.52;5.90;;;;;;;19.77;62.86;100658.31;4470025;31;20565;-67
2022/05/11 07:12:17;;;;;;;10.27;6.68;;;;;;;19.91;58.22;100657.69;4469810;31;20155;-67
2022/05/11 07:13:31;;;;;;;7.18;5.03;;;;;;;20.13;59.54;100659.34;4469690;31;20122;-67
2022/05/11 07:15:59;;;;;;;14.05;5.03;;;;;;;20.32;51.75;100662.00;4469246;31;20461;-67
2022/05/11 07:18:26;;;;;;;8.20;4.55;;;;;;;20.48;51.13;100655.84;4468627;31;20092;-67
2022/05/11 07:20:53;;;;;;;7.32;3.83;;;;;;;20.74;49.82;100661.75;4469231;31;20172;-67
2022/05/11 07:23:21;;;;;;;7.05;4.30;;;;;;;20.76;45.68;100663.44;4467551;31;20159;-67
2022/05/11 07:25:48;;;;;;;14.32;4.25;;;;;;;20.77;46.70;100654.44;4469297;31;20149;-67
2022/05/11 07:28:15;;;;;;;7.87;4.00;;;;;;;20.87;46.40;100654.00;4469650;31;20168;-67
2022/05/11 07:30:47;;;;;;;7.78;4.82;;;;;;;21.03;47.15;100646.06;4463742;31;20084;-67
2022/05/11 07:33:15;;;;;;;9.25;4.60;;;;;;;21.19;46.78;100652.34;4454872;32;20164;-67
2022/05/11 07:35:43;;;;;;;9.57;5.07;;;;;;;21.42;47.12;100653.87;4453138;32;20100;-67
2022/05/11 07:38:14;;;;;;;7.45;4.95;;;;;;;21.53;47.72;100646.13;4453010;32;20156;-67
2022/05/11 07:40:42;;;;;;;11.05;5.68;;;;;;;21.75;47.22;100651.19;4453065;32;20428;-67
2022/05/11 07:43:10;;;;;;;13.57;5.72;;;;;;;21.89;46.38;100655.81;4452592;32;20161;-66
2022/05/11 07:45:39;;;;;;;10.98;4.70;;;;;;;22.05;46.07;100653.13;4454962;32;20156;-67
2022/05/11 07:48:07;;;;;;;8.18;4.25;;;;;;;22.05;43.49;100650.47;4454903;32;20532;-67
2022/05/11 07:50:35;;;;;;;9.25;4.30;;;;;;;22.22;44.18;100647.72;4455228;32;20708;-67
2022/05/11 07:53:04;;;;;;;9.48;4.65;;;;;;;22.36;45.04;100647.81;4455404;32;20164;-67
2022/05/11 07:55:33;;;;;;;6.18;4.87;;;;;;;22.54;43.60;100645.03;4455038;32;20100;-68
2022/05/11 08:00:46;;;;;;;6.17;3.77;;;;;;;22.75;43.91;100651.00;4455190;32;20167;-66
2022/05/11 08:03:14;;;;;;;6.60;3.60;;;;;;;22.82;42.91;100657.75;4455635;32;20140;-66
2022/05/11 08:05:41;;;;;;;4.45;3.08;;;;;;;22.87;43.41;100653.84;4455744;32;20171;-66
2022/05/11 08:08:09;;;;;;;6.68;2.47;;;;;;;22.88;40.56;100655.56;4455863;32;20456;-66
2022/05/11 08:10:41;;;;;;;3.25;2.53;;;;;;;22.86;40.93;100654.81;4455683;32;20105;-66
2022/05/11 08:13:09;;;;;;;3.50;2.95;;;;;;;23.01;40.94;100662.94;4455749;32;20365;-66
2022/05/11 08:15:43;;;;;;;6.03;2.42;;;;;;;23.09;41.29;100652.59;4456041;32;20507;-66
2022/05/11 08:18:12;;;;;;;7.75;3.30;;;;;;;23.22;40.43;100647.37;4460186;32;20157;-66
2022/05/11 08:20:43;;;;;;;5.07;2.80;;;;;;;23.10;40.17;100649.81;4459425;32;20101;-66
2022/05/11 08:23:11;;;;;;;5.53;2.90;;;;;;;23.16;40.04;100642.34;4449800;32;20101;-66
2022/05/11 08:25:40;;;;;;;9.95;3.05;;;;;;;23.32;39.95;100632.38;4455899;32;20088;-66
2022/05/11 08:28:11;;;;;;;6.75;2.42;;;;;;;23.56;40.77;100636.25;4455746;32;20115;-67
2022/05/11 08:33:29;;;;;;;3.55;3.00;;;;;;;23.69;38.72;100633.72;4455889;32;20456;-66
2022/05/11 08:36:19;;;;;;;9.52;2.70;;;;;;;23.42;39.58;100635.38;4455624;32;20092;-67
2022/05/11 08:38:50;;;;;;;8.57;2.65;;;;;;;23.75;39.08;100633.34;4455029;32;20691;-68
2022/05/11 08:41:52;;;;;;;6.15;3.08;;;;;;;23.88;38.99;100635.22;4455185;32;20105;-67
2022/05/11 08:44:34;;;;;;;6.82;2.70;;;;;;;23.79;39.50;100634.88;4441217;32;20235;-67
2022/05/11 08:47:25;;;;;;;4.47;2.95;;;;;;;23.99;38.84;100627.34;4455390;32;20404;-67
2022/05/11 08:49:57;;;;;;;4.18;3.12;;;;;;;23.88;38.57;100629.84;4455233;32;20232;-67
2022/05/11 08:52:54;;;;;;;10.32;2.60;;;;;;;24.15;37.76;100638.00;4455442;32;20112;-67
2022/05/11 08:55:28;;;;;;;;;;;;;;;24.27;36.69;100629.97;4454362;32;20469;-66
2022/05/11 08:57:56;;;;;;;6.05;2.50;;;;;;;24.50;38.00;100633.03;4454333;32;19988;-66
2022/05/11 09:00:23;;;;;;;5.93;2.80;;;;;;;24.80;37.60;100632.81;4453654;32;20127;-67
2022/05/11 09:02:58;;;;;;;11.95;3.30;;;;;;;24.52;37.25;100636.47;4455166;32;20123;-67
2022/05/11 09:05:28;;;;;;;4.87;2.20;;;;;;;24.82;36.22;100633.59;4455088;32;20105;-67
2022/05/11 09:07:57;;;;;;;5.53;2.60;;;;;;;25.03;36.81;100629.44;4454270;32;20504;-67
2022/05/11 09:10:32;;;;;;;7.28;2.90;;;;;;;24.61;36.92;100630.50;4454277;32;20448;-67
2022/05/11 09:13:02;;;;;;;6.78;2.65;;;;;;;24.30;36.91;100631.59;4455279;32;20118;-67
2022/05/11 09:15:54;;;;;;;3.00;2.70;;;;;;;24.53;37.12;100638.22;4454693;32;20115;-67
2022/05/11 09:18:22;;;;;;;9.55;2.67;;;;;;;24.80;36.02;100639.06;4455038;32;20374;-67
2022/05/11 09:20:52;;;;;;;4.80;3.28;;;;;;;24.82;36.29;100624.63;4455288;32;20162;-67
2022/05/11 09:23:40;;;;;;;6.47;2.95;;;;;;;25.22;36.71;100620.97;4454952;32;20096;-67
2022/05/11 09:26:11;;;;;;;3.17;2.90;;;;;;;25.57;34.88;100631.13;4454393;32;20180;-67
2022/05/11 09:28:45;;;;;;;4.47;3.03;;;;;;;25.58;35.44;100627.44;4454744;32;20162;-67
2022/05/11 09:31:23;;;;;;;7.28;2.80;;;;;;;25.27;35.11;100624.22;4453518;32;20168;-67
2022/05/11 09:34:00;;;;;;;8.25;2.83;;;;;;;24.97;36.23;100626.28;4454961;32;20126;-67
2022/05/11 09:36:58;;;;;;;5.45;2.75;;;;;;;25.13;36.23;100629.69;4455153;32;20123;-67
2022/05/11 09:39:27;;;;;;;3.72;2.60;;;;;;;25.43;35.94;100629.38;4454895;32;20757;-67
2022/05/11 09:42:09;;;;;;;5.50;2.97;;;;;;;25.70;35.20;100620.34;4454487;32;20131;-67
2022/05/11 09:44:47;;;;;;;9.23;3.28;;;;;;;25.63;34.68;100625.31;4454510;32;20104;-67
2022/05/11 09:47:34;;;;;;;3.08;2.53;;;;;;;25.58;36.03;100624.75;4454941;32;20164;-67
2022/05/11 09:50:22;;;;;;;7.40;3.45;;;;;;;25.92;35.20;100623.25;4454835;32;20072;-67
2022/05/11 09:52:51;;;;;;;4.00;2.53;;;;;;;26.11;34.47;100630.00;4454738;32;20198;-67
2022/05/11 09:55:31;;;;;;;6.15;2.67;;;;;;;26.36;35.49;100626.34;4454815;32;20158;-67
2022/05/11 09:58:02;;;;;;;11.23;2.72;;;;;;;26.70;33.68;100633.69;4454795;32;20140;-67
2022/05/11 10:00:43;;;;;;;3.17;2.87;;;;;;;26.80;33.45;100627.59;4454393;32;20101;-67
2022/05/11 10:03:16;;;;;;;5.55;2.85;;;;;;;26.97;33.05;100620.91;4454666;32;20744;-68
2022/05/11 10:05:50;;;;;;;4.53;3.15;;;;;;;27.01;33.55;100622.41;4455135;32;20093;-68
2022/05/11 10:08:34;;;;;;;4.70;3.15;;;;;;;27.00;32.41;100615.25;4454592;32;20186;-67
2022/05/11 10:11:04;;;;;;;5.25;2.67;;;;;;;27.14;32.88;100621.38;4455073;32;20088;-67
2022/05/11 10:13:35;;;;;;;8.57;2.65;;;;;;;27.24;31.01;100618.78;4452718;32;20147;-67
2022/05/11 10:22:15;;;;;;;4.60;2.75;;;;;;;27.92;30.50;100608.06;4454094;32;20127;-67
2022/05/11 10:24:49;;;;;;;5.07;2.40;;;;;;;27.76;29.71;100609.28;4454514;32;20165;-67
2022/05/11 10:27:27;;;;;;;3.92;2.78;;;;;;;27.43;30.73;100606.56;4454994;32;20096;-67
2022/05/11 10:30:16;;;;;;;5.07;2.42;;;;;;;27.57;30.97;100601.75;4454433;32;20155;-68
2022/05/11 10:33:15;;;;;;;2.95;2.40;;;;;;;28.32;30.20;100603.81;4454478;32;20747;-67
2022/05/11 10:36:07;;;;;;;4.12;2.25;;;;;;;28.18;29.42;100608.66;4454390;32;20154;-68
2022/05/11 10:38:34;;;;;;;3.58;2.50;;;;;;;28.78;29.17;100608.12;4455189;32;20152;-68
2022/05/11 10:41:11;;;;;;;2.60;2.40;;;;;;;28.67;28.94;100597.31;4461283;32;20147;-67
2022/05/11 10:43:55;;;;;;;7.30;2.70;;;;;;;28.87;28.47;100601.06;4455057;32;20400;-67
2022/05/11 10:46:35;;;;;;;5.82;2.75;;;;;;;29.14;28.92;100594.28;4453158;32;20085;-67
2022/05/11 10:49:33;;;;;;;2.67;2.45;;;;;;;29.18;28.34;100593.88;4453546;32;20812;-66
2022/05/11 10:52:14;;;;;;;7.10;2.78;;;;;;;28.92;28.34;100582.53;4455711;32;20107;-66
2022/05/11 10:54:50;;;;;;;2.65;2.25;;;;;;;28.63;27.76;100590.44;4460112;32;20118;-67
2022/05/11 10:57:29;;;;;;;9.38;2.70;;;;;;;28.50;28.26;100576.19;4461762;32;20180;-66
2022/05/11 11:00:12;;;;;;;3.83;2.25;;;;;;;29.24;27.53;100577.06;4469383;32;20589;-66
2022/05/11 11:02:58;;;;;;;3.95;2.58;;;;;;;30.17;26.74;100588.75;4469121;32;20115;-66
2022/05/11 11:05:46;;;;;;;9.73;2.40;;;;;;;29.46;27.03;100583.31;4469056;32;20496;-66
2022/05/11 11:08:21;;;;;;;4.82;2.80;;;;;;;27.89;29.03;100576.69;4468416;32;20561;-67
2022/05/11 11:10:51;;;;;;;3.87;2.58;;;;;;;27.07;30.32;100582.22;4467320;32;20084;-66
2022/05/11 11:13:35;;;;;;;7.53;2.80;;;;;;;26.81;31.62;100584.22;4466892;32;20159;-67
2022/05/11 11:16:04;;;;;;;6.35;2.22;;;;;;;27.62;30.13;100574.31;4453163;32;20075;-66
2022/05/11 11:18:34;;;;;;;8.10;2.58;;;;;;;27.98;28.96;100578.63;4467101;32;20139;-67
2022/05/11 11:21:04;;;;;;;13.40;2.22;;;;;;;28.54;29.02;100573.06;4470001;32;20084;-67
2022/05/11 11:23:37;;;;;;;5.40;2.20;;;;;;;29.61;27.89;100567.53;4469194;32;20114;-67
2022/05/11 11:26:24;;;;;;;3.62;2.50;;;;;;;30.82;25.05;100565.53;4470357;32;20670;-66
2022/05/11 11:28:54;;;;;;;4.57;2.30;;;;;;;31.04;25.82;100577.13;4469785;32;20122;-66
2022/05/11 11:31:24;;;;;;;4.40;2.78;;;;;;;29.67;27.37;100561.59;4470228;32;20127;-66
2022/05/11 11:34:00;;;;;;;5.25;2.75;;;;;;;30.76;26.17;100568.84;4470842;32;20118;-66
2022/05/11 11:36:33;;;;;;;4.30;3.72;;;;;;;32.01;25.15;100561.31;4470916;32;20112;-66
2022/05/11 11:39:03;;;;;;;3.10;2.47;;;;;;;33.89;24.04;100557.41;4470619;32;20455;-66
2022/05/11 11:41:52;;;;;;;3.40;1.98;;;;;;;33.70;21.58;100554.91;4470711;32;20157;-66
2022/05/11 11:44:35;;;;;;;2.47;2.20;;;;;;;34.33;20.61;100554.47;4470599;32;20458;-66
2022/05/11 11:47:25;;;;;;;4.00;2.30;;;;;;;34.92;20.95;100557.09;4471463;32;20091;-66
2022/05/11 11:49:55;;;;;;;6.20;2.22;;;;;;;34.49;20.82;100551.75;4470813;32;20091;-67
2022/05/11 11:52:46;;;;;;;3.05;2.25;;;;;;;33.51;21.43;100536.91;4471572;32;20774;-67
2022/05/11 11:55:30;;;;;;;5.18;2.20;;;;;;;35.30;20.63;100535.47;4471700;32;20084;-67
2022/05/11 11:58:20;;;;;;;5.93;2.10;;;;;;;36.79;19.40;100533.50;4471211;32;20112;-66
2022/05/11 12:00:47;;;;;;;7.03;2.62;;;;;;;36.49;18.58;100529.81;4470753;32;20115;-66
2022/05/11 12:03:17;;;;;;;5.12;2.28;;;;;;;35.44;19.77;100526.53;4462246;32;20538;-67
2022/05/11 12:05:52;;;;;;;5.97;2.20;;;;;;;36.18;20.15;100528.97;4454329;32;20643;-67
2022/05/11 12:17:23;;;;;;;4.93;2.17;;;;;;;35.06;18.96;100506.28;4462335;32;20461;-67
2022/05/11 12:20:01;;;;;;;2.53;2.25;;;;;;;33.72;20.01;100498.22;4461152;32;20084;-66
2022/05/11 12:22:31;;;;;;;3.12;2.20;;;;;;;33.47;21.41;100505.44;4466451;32;20100;-67